Time;durP1;ratioP1;P1;durP2;ratioP2;P2;SDS_P1;SDS_P2;PMS_P1;PMS_P2;Temp;Humidity;BMP_temperature;BMP_pressure;BME280_temperature;BME280_humidity;BME280_pressure;Samples;Min_cycle;Max_cycle;Signal;HPM_P1;HPM_P2
2022/02/05 00:02:54;;;;;;;3.28;1.48;;;5.50;99.90;;;;;;5033802;28;20038;-68
2022/02/05 00:05:25;;;;;;;4.93;1.05;;;5.50;99.90;;;;;;5031915;28;20163;-70
2022/02/05 00:08:09;;;;;;;3.05;1.08;;;5.40;99.90;;;;;;5031633;28;20040;-71
2022/02/05 00:15:52;;;;;;;2.30;1.20;;;5.40;99.90;;;;;;5037515;28;20124;-74
2022/02/05 00:40:44;;;;;;;1.92;1.23;;;5.10;99.90;;;;;;5054435;28;20039;-68
2022/02/05 00:42:43;;;;;;;4.30;1.10;;;4.90;99.90;;;;;;5041529;28;20046;-68
2022/02/05 00:45:11;;;;;;;4.25;1.15;;;4.90;99.90;;;;;;5064873;28;20538;-69
2022/02/05 00:47:42;;;;;;;7.50;1.27;;;4.80;99.90;;;;;;5036894;28;20029;-68
2022/02/05 00:50:14;;;;;;;4.35;1.00;;;4.90;99.90;;;;;;5037019;28;20298;-67
2022/02/05 00:52:41;;;;;;;1.60;0.70;;;4.80;99.90;;;;;;5034917;28;20041;-68
2022/02/05 00:55:11;;;;;;;3.03;1.00;;;4.80;99.90;;;;;;5035679;28;20017;-67
2022/02/05 00:57:46;;;;;;;7.25;2.20;;;4.70;99.90;;;;;;5034662;28;20026;-69
2022/02/05 01:00:14;;;;;;;6.40;1.15;;;4.80;99.90;;;;;;5034190;28;20024;-68
2022/02/05 01:02:39;;;;;;;4.18;0.70;;;4.70;99.90;;;;;;5035136;28;20037;-68
2022/02/05 01:05:05;;;;;;;5.20;1.23;;;4.60;99.90;;;;;;5029641;28;20021;-68
2022/02/05 01:07:31;;;;;;;5.05;1.15;;;4.60;99.90;;;;;;5039170;28;20025;-72
2022/02/05 01:09:57;;;;;;;2.63;1.10;;;4.60;99.90;;;;;;5035998;28;20033;-68
2022/02/05 01:12:25;;;;;;;5.05;1.10;;;4.70;99.90;;;;;;5034213;28;20159;-69
2022/02/05 01:14:55;;;;;;;2.40;0.80;;;4.70;99.90;;;;;;5037473;28;20026;-71
2022/02/05 01:17:29;;;;;;;4.32;1.38;;;4.50;99.90;;;;;;5041538;28;20018;-71
2022/02/05 01:22:31;;;;;;;2.72;1.60;;;4.60;99.90;;;;;;5042571;28;20102;-69
2022/02/05 01:24:57;;;;;;;2.45;1.20;;;4.60;99.90;;;;;;5040840;28;20029;-68
2022/02/05 01:32:24;;;;;;;4.30;1.13;;;4.60;99.90;;;;;;5056279;28;20119;-68
2022/02/05 01:35:07;;;;;;;3.25;1.75;;;4.60;99.90;;;;;;5034908;28;20017;-67
2022/02/05 01:56:44;;;;;;;3.10;1.88;;;4.50;99.90;;;;;;5014267;28;20103;-68
2022/02/05 01:59:21;;;;;;;5.80;1.45;;;4.50;99.90;;;;;;5012868;28;20110;-68
2022/02/05 02:24:03;;;;;;;3.35;1.73;;;4.30;99.90;;;;;;5015085;28;20060;-70
2022/02/05 02:29:13;;;;;;;3.33;1.45;;;4.40;99.90;;;;;;5016270;28;20083;-70
2022/02/05 02:31:43;;;;;;;7.55;1.77;;;4.40;99.90;;;;;;5014189;28;20456;-67
2022/02/05 02:34:14;;;;;;;9.73;2.05;;;4.40;99.90;;;;;;5013133;28;20018;-69
2022/02/05 02:36:54;;;;;;;4.27;1.37;;;4.40;99.90;;;;;;5013653;28;20030;-68
2022/02/05 02:39:32;;;;;;;7.28;1.48;;;4.50;99.90;;;;;;5012944;28;20268;-68
2022/02/05 02:42:03;;;;;;;4.43;2.53;;;4.50;99.90;;;;;;5012729;28;20032;-69
2022/02/05 02:44:29;;;;;;;5.38;1.42;;;4.40;99.90;;;;;;5013356;28;20030;-67
2022/02/05 02:46:55;;;;;;;6.25;2.13;;;4.40;99.90;;;;;;5013245;28;20088;-69
2022/02/05 02:49:37;;;;;;;6.22;1.58;;;4.50;99.90;;;;;;5011339;28;20030;-67
2022/02/05 02:57:32;;;;;;;4.32;1.55;;;4.40;99.90;;;;;;5034342;28;20040;-68
2022/02/05 03:00:07;;;;;;;10.27;2.08;;;4.40;99.90;;;;;;5033101;28;20116;-68
2022/02/05 03:02:32;;;;;;;8.05;2.20;;;4.40;99.90;;;;;;5034809;28;20030;-68
2022/02/05 03:04:58;;;;;;;3.85;1.80;;;4.40;99.90;;;;;;5032475;28;20489;-68
2022/02/05 03:07:25;;;;;;;4.00;2.17;;;4.40;99.90;;;;;;5033200;28;20025;-68
2022/02/05 03:09:52;;;;;;;6.38;2.55;;;4.50;99.90;;;;;;5032405;28;20034;-69
2022/02/05 03:12:19;;;;;;;6.47;2.13;;;4.40;99.90;;;;;;5031818;28;20396;-70
2022/02/05 03:14:44;;;;;;;6.80;2.03;;;4.40;99.90;;;;;;5033299;28;20415;-69
2022/02/05 03:17:18;;;;;;;4.70;1.98;;;4.50;99.90;;;;;;5031226;28;20034;-68
2022/02/05 03:19:46;;;;;;;7.03;2.13;;;4.50;99.90;;;;;;5033308;28;20372;-68
2022/02/05 03:22:13;;;;;;;7.53;2.17;;;4.50;99.90;;;;;;5031985;28;20085;-68
2022/02/05 03:24:39;;;;;;;4.60;1.88;;;4.40;99.90;;;;;;5033194;28;20033;-68
2022/02/05 03:27:06;;;;;;;6.43;1.85;;;4.40;99.90;;;;;;5032132;28;20026;-68
2022/02/05 03:29:31;;;;;;;3.25;1.60;;;4.50;99.90;;;;;;5034382;28;20034;-68
2022/02/05 03:31:57;;;;;;;8.38;2.15;;;4.40;99.90;;;;;;5034427;28;20264;-68
2022/02/05 03:34:23;;;;;;;6.72;2.55;;;4.40;99.90;;;;;;5031843;28;20025;-69
2022/02/05 03:36:48;;;;;;;4.47;1.90;;;4.40;99.90;;;;;;5034704;28;20033;-68
2022/02/05 03:39:14;;;;;;;3.95;2.05;;;4.40;99.90;;;;;;5032833;28;20032;-68
2022/02/05 03:41:40;;;;;;;7.00;2.22;;;4.30;99.90;;;;;;5033445;28;20021;-69
2022/02/05 03:44:05;;;;;;;7.10;1.85;;;4.20;99.90;;;;;;5032899;28;20026;-69
2022/02/05 03:46:31;;;;;;;6.07;2.45;;;4.30;99.90;;;;;;5033479;28;20034;-67
2022/02/05 03:48:57;;;;;;;5.65;1.80;;;4.30;99.90;;;;;;5035141;28;20033;-68
2022/02/05 03:51:24;;;;;;;7.78;2.28;;;4.30;99.90;;;;;;5031674;28;20044;-69
2022/02/05 03:53:49;;;;;;;6.70;1.80;;;4.20;99.90;;;;;;5032720;28;20121;-69
2022/02/05 03:56:15;;;;;;;7.20;1.67;;;4.20;99.90;;;;;;5033588;28;20136;-68
2022/02/05 03:58:40;;;;;;;6.72;2.25;;;4.10;99.90;;;;;;5033596;28;20093;-68
2022/02/05 04:01:06;;;;;;;5.18;1.52;;;4.00;99.90;;;;;;5032843;28;20037;-67
2022/02/05 04:03:32;;;;;;;3.78;1.48;;;4.00;99.90;;;;;;5031519;28;20033;-68
2022/02/05 04:05:58;;;;;;;5.05;1.77;;;4.00;99.90;;;;;;5032224;28;20037;-67
2022/02/05 04:08:24;;;;;;;7.82;1.95;;;4.00;99.90;;;;;;5032188;28;20033;-69
2022/02/05 04:11:01;;;;;;;5.90;1.48;;;4.00;99.90;;;;;;5032116;28;20026;-68
2022/02/05 04:16:22;;;;;;;6.53;1.85;;;4.00;99.90;;;;;;5032255;28;20103;-68
2022/02/05 04:18:53;;;;;;;6.47;1.67;;;4.00;99.90;;;;;;5034734;28;20025;-68
2022/02/05 04:21:20;;;;;;;3.25;1.55;;;4.00;99.90;;;;;;5033461;28;20053;-65
2022/02/05 04:23:48;;;;;;;6.00;1.80;;;4.00;99.90;;;;;;5033709;28;20045;-68
2022/02/05 04:26:17;;;;;;;6.18;1.75;;;4.00;99.90;;;;;;5034180;28;20036;-69
2022/02/05 04:28:44;;;;;;;6.40;1.60;;;4.00;99.90;;;;;;5035825;28;20109;-69
2022/02/05 04:31:09;;;;;;;4.10;1.65;;;4.10;99.90;;;;;;5036599;28;20463;-68
2022/02/05 04:33:36;;;;;;;4.18;2.00;;;4.10;99.90;;;;;;5037019;28;20037;-68
2022/02/05 04:36:03;;;;;;;7.53;2.40;;;4.10;99.90;;;;;;5036472;28;20029;-69
2022/02/05 04:38:30;;;;;;;5.43;2.05;;;4.10;99.90;;;;;;5035071;28;20114;-68
2022/02/05 04:41:22;;;;;;;4.10;1.80;;;4.20;99.90;;;;;;5036517;28;20033;-69
2022/02/05 04:44:13;;;;;;;7.70;2.20;;;4.20;99.90;;;;;;5035593;28;20029;-69
2022/02/05 04:49:43;;;;;;;7.13;1.80;;;4.00;99.90;;;;;;5037190;28;20258;-69
2022/02/05 04:54:54;;;;;;;4.80;1.95;;;3.90;99.90;;;;;;5037585;28;20025;-68
2022/02/05 05:03:15;;;;;;;8.18;2.45;;;4.00;99.90;;;;;;5033415;28;20092;-68
2022/02/05 05:05:50;;;;;;;6.03;2.10;;;4.00;99.90;;;;;;5017191;28;20522;-68
2022/02/05 05:08:35;;;;;;;4.68;1.77;;;4.00;99.90;;;;;;5033684;28;20427;-68
2022/02/05 05:11:35;;;;;;;5.57;2.08;;;4.00;99.90;;;;;;5017063;28;20030;-70
2022/02/05 05:21:39;;;;;;;4.35;2.13;;;4.00;99.90;;;;;;5032629;28;20053;-69
2022/02/05 05:24:05;;;;;;;5.20;2.10;;;4.00;99.90;;;;;;5016368;28;20434;-71
2022/02/05 05:26:31;;;;;;;6.72;2.33;;;3.90;99.90;;;;;;5017611;28;20419;-70
2022/02/05 05:28:56;;;;;;;5.97;2.17;;;3.70;99.90;;;;;;5033566;28;20538;-69
2022/02/05 05:31:22;;;;;;;5.00;2.63;;;3.80;99.90;;;;;;5032731;28;20025;-70
2022/02/05 05:33:48;;;;;;;5.57;2.30;;;3.80;99.90;;;;;;5034212;28;20033;-69
2022/02/05 05:36:13;;;;;;;10.18;2.78;;;3.80;99.90;;;;;;5033433;28;20029;-70
2022/02/05 05:38:41;;;;;;;6.20;2.67;;;3.80;99.90;;;;;;5034270;28;20104;-70
2022/02/05 05:41:08;;;;;;;7.13;2.13;;;3.80;99.90;;;;;;5034508;28;20086;-70
2022/02/05 05:43:48;;;;;;;7.88;2.53;;;3.80;99.90;;;;;;5035202;28;20025;-70
2022/02/05 05:46:31;;;;;;;9.35;2.42;;;3.90;99.90;;;;;;5034759;28;20028;-68
2022/02/05 05:49:10;;;;;;;7.05;4.00;;;4.00;99.90;;;;;;5034551;28;20037;-68
2022/02/05 05:51:36;;;;;;;6.88;2.80;;;4.00;99.90;;;;;;5033597;28;20084;-68
2022/02/05 05:54:01;;;;;;;6.43;2.50;;;3.90;99.90;;;;;;5035990;28;20030;-70
2022/02/05 05:56:27;;;;;;;4.95;2.10;;;3.90;99.90;;;;;;5035180;28;20049;-68
2022/02/05 05:58:53;;;;;;;7.40;3.08;;;3.80;99.90;;;;;;5034639;28;20053;-71
2022/02/05 06:01:19;;;;;;;10.02;2.33;;;3.90;99.90;;;;;;5036547;28;20038;-69
2022/02/05 06:03:45;;;;;;;7.88;2.47;;;3.80;99.90;;;;;;5034546;28;20022;-69
2022/02/05 06:06:10;;;;;;;7.20;2.75;;;3.80;99.90;;;;;;5034304;28;20029;-69
2022/02/05 06:08:36;;;;;;;5.25;2.40;;;3.70;99.90;;;;;;5035077;28;20025;-68
2022/02/05 06:11:02;;;;;;;5.78;2.90;;;3.70;99.90;;;;;;5017798;28;20021;-68
2022/02/05 06:13:28;;;;;;;9.25;2.22;;;3.60;99.90;;;;;;5033720;28;20021;-69
2022/02/05 06:15:55;;;;;;;8.93;2.95;;;3.70;99.90;;;;;;5034488;28;20025;-69
2022/02/05 06:18:21;;;;;;;7.82;3.20;;;3.60;99.90;;;;;;5034053;28;20075;-68
2022/02/05 06:20:47;;;;;;;8.43;2.10;;;3.60;99.90;;;;;;5035966;28;20085;-69
2022/02/05 06:23:12;;;;;;;4.50;3.03;;;3.60;99.90;;;;;;5035870;28;20056;-71
2022/02/05 06:25:41;;;;;;;8.60;2.25;;;3.50;99.90;;;;;;5036558;28;20033;-68
2022/02/05 06:28:09;;;;;;;7.35;2.50;;;3.30;99.90;;;;;;5035251;28;20116;-69
2022/02/05 06:30:35;;;;;;;8.65;2.33;;;3.40;99.90;;;;;;5036254;28;20075;-68
2022/02/05 06:33:01;;;;;;;5.90;2.42;;;3.40;99.90;;;;;;5035823;28;20028;-68
2022/02/05 06:35:27;;;;;;;8.57;3.22;;;3.40;99.90;;;;;;5035042;28;20116;-70
2022/02/05 06:37:53;;;;;;;4.65;2.35;;;3.40;99.90;;;;;;5033947;28;20442;-70
2022/02/05 06:40:18;;;;;;;8.65;2.22;;;3.50;99.90;;;;;;5035081;28;20026;-68
2022/02/05 06:42:45;;;;;;;4.35;1.95;;;3.40;99.90;;;;;;5033670;28;20057;-69
2022/02/05 06:45:12;;;;;;;8.85;2.53;;;3.40;99.90;;;;;;5033229;28;20459;-68
2022/02/05 06:47:37;;;;;;;7.40;2.28;;;3.40;99.90;;;;;;5033640;28;20033;-68
2022/02/05 06:50:03;;;;;;;6.00;2.38;;;3.50;99.90;;;;;;5032609;28;20451;-68
2022/02/05 06:52:29;;;;;;;10.88;2.45;;;3.50;99.90;;;;;;5032661;28;20428;-70
2022/02/05 06:54:55;;;;;;;6.90;2.90;;;3.60;99.90;;;;;;5031989;28;20030;-68
2022/02/05 06:57:20;;;;;;;6.50;2.03;;;3.50;99.90;;;;;;5031511;28;20030;-68
2022/02/05 06:59:46;;;;;;;3.60;2.20;;;3.50;99.90;;;;;;5033850;28;20026;-69
2022/02/05 07:02:12;;;;;;;6.88;2.95;;;3.40;99.90;;;;;;5032722;28;20482;-71
2022/02/05 07:04:37;;;;;;;7.80;2.75;;;3.40;99.90;;;;;;5032162;28;20447;-68
2022/02/05 07:07:03;;;;;;;4.55;2.58;;;3.40;99.90;;;;;;5033165;28;20025;-70
2022/02/05 07:09:29;;;;;;;8.35;3.55;;;3.40;99.90;;;;;;5032824;28;20077;-69
2022/02/05 07:11:57;;;;;;;6.63;4.18;;;3.60;99.90;;;;;;5033735;28;20079;-69
2022/02/05 07:14:27;;;;;;;8.75;2.25;;;3.80;99.90;;;;;;5032818;28;20105;-68
2022/02/05 07:17:07;;;;;;;8.93;2.60;;;4.00;99.90;;;;;;5035207;28;20088;-69
2022/02/05 07:20:00;;;;;;;8.90;2.90;;;4.20;99.90;;;;;;5032607;28;20033;-69
2022/02/05 07:22:21;;;;;;;6.88;2.40;;;4.40;99.90;;;;;;5031952;28;20050;-69
2022/02/05 07:30:15;;;;;;;6.38;2.42;;;4.90;99.90;;;;;;5036401;28;20038;-68
2022/02/05 07:32:40;;;;;;;2.80;1.30;;;6.70;99.90;;;;;;5036765;28;20034;-67
2022/02/05 07:35:07;;;;;;;6.10;3.13;;;9.80;99.90;;;;;;5035957;28;20021;-65
2022/02/05 07:37:32;;;;;;;6.38;2.03;;;10.70;99.90;;;;;;5033879;28;20086;-64
2022/02/05 07:39:58;;;;;;;8.15;2.25;;;10.40;99.90;;;;;;5034522;28;20087;-70
2022/02/05 07:42:24;;;;;;;8.68;1.85;;;8.90;99.90;;;;;;5034447;28;20026;-67
2022/02/05 07:44:51;;;;;;;5.45;1.83;;;7.70;99.90;;;;;;5034159;28;20116;-68
2022/02/05 07:47:20;;;;;;;6.18;2.40;;;7.20;99.90;;;;;;5031093;28;20025;-68
2022/02/05 07:49:46;;;;;;;3.25;1.63;;;7.00;99.90;;;;;;5013736;28;20040;-70
2022/02/05 07:52:12;;;;;;;5.90;2.58;;;6.80;99.90;;;;;;5012929;28;20034;-68
2022/02/05 07:54:38;;;;;;;10.50;2.60;;;6.80;99.90;;;;;;5028977;28;20475;-68
2022/02/05 07:57:04;;;;;;;5.45;2.20;;;6.80;99.90;;;;;;5025504;28;20103;-71
2022/02/05 07:59:30;;;;;;;13.80;2.50;;;6.70;99.90;;;;;;5012227;28;20399;-68
2022/02/05 08:01:56;;;;;;;6.40;2.78;;;6.40;99.90;;;;;;5015017;28;20029;-72
2022/02/05 08:04:22;;;;;;;8.10;2.13;;;6.60;99.90;;;;;;5015036;28;20034;-72
2022/02/05 08:06:48;;;;;;;7.82;2.95;;;6.70;99.90;;;;;;5016672;28;20540;-69
2022/02/05 08:09:24;;;;;;;8.18;2.63;;;6.70;99.90;;;;;;5017020;28;20036;-69
2022/02/05 08:12:10;;;;;;;8.05;2.55;;;7.20;99.90;;;;;;5018040;28;20112;-68
2022/02/05 08:14:40;;;;;;;5.10;2.22;;;7.40;99.90;;;;;;5017390;28;20103;-69
2022/02/05 08:17:16;;;;;;;6.25;2.40;;;7.40;99.90;;;;;;5017582;28;20026;-68
2022/02/05 08:19:45;;;;;;;8.25;2.75;;;7.50;99.90;;;;;;5015175;28;20032;-69
2022/02/05 08:22:11;;;;;;;4.82;2.70;;;7.70;99.90;;;;;;5016196;28;20061;-68
2022/02/05 08:24:40;;;;;;;6.18;2.28;;;7.70;99.90;;;;;;5047802;28;20030;-69
2022/02/05 08:27:06;;;;;;;7.15;2.50;;;8.00;99.90;;;;;;5016216;28;20112;-69
2022/02/05 08:29:33;;;;;;;5.88;2.60;;;8.40;99.90;;;;;;5015715;28;20037;-71
2022/02/05 08:31:59;;;;;;;8.38;2.95;;;8.80;99.90;;;;;;5015970;28;20061;-69
2022/02/05 08:34:25;;;;;;;6.20;2.25;;;9.10;99.90;;;;;;5015450;28;20084;-70
2022/02/05 08:36:51;;;;;;;10.82;2.47;;;8.90;99.90;;;;;;5015928;28;20030;-71
2022/02/05 08:39:17;;;;;;;7.03;2.38;;;9.00;99.90;;;;;;5014551;28;20026;-70
2022/02/05 08:41:44;;;;;;;7.97;2.97;;;9.20;99.90;;;;;;5014945;28;20032;-68
2022/02/05 08:44:10;;;;;;;9.57;2.53;;;9.50;99.90;;;;;;5032213;28;20018;-68
2022/02/05 08:46:36;;;;;;;4.15;2.05;;;9.30;99.90;;;;;;5014082;28;20038;-69
2022/02/05 08:49:03;;;;;;;6.03;2.17;;;9.10;99.90;;;;;;5015902;28;20046;-68
2022/02/05 08:51:29;;;;;;;14.13;2.30;;;9.00;99.90;;;;;;5015761;28;20034;-69
2022/02/05 08:53:55;;;;;;;17.80;2.97;;;9.40;99.90;;;;;;5015208;28;20029;-70
2022/02/05 08:56:22;;;;;;;6.20;2.20;;;9.20;99.90;;;;;;5015777;28;20073;-70
2022/02/05 08:58:50;;;;;;;8.75;2.75;;;9.40;99.90;;;;;;5018005;28;20100;-70
2022/02/05 09:01:23;;;;;;;7.75;2.72;;;9.30;99.90;;;;;;5014781;28;20026;-69
2022/02/05 09:04:06;;;;;;;8.20;2.53;;;9.00;99.90;;;;;;5016020;28;20428;-68
2022/02/05 09:06:38;;;;;;;7.28;2.30;;;9.20;99.90;;;;;;5014963;28;20033;-69
2022/02/05 09:09:27;;;;;;;6.03;2.60;;;9.30;99.90;;;;;;5015570;28;20041;-69
2022/02/05 09:12:03;;;;;;;9.95;2.90;;;9.10;99.90;;;;;;5015076;28;20361;-69
2022/02/05 09:16:55;;;;;;;6.15;2.67;;;9.70;99.90;;;;;;5015622;28;20030;-71
2022/02/05 09:19:24;;;;;;;12.43;3.42;;;9.80;99.90;;;;;;5024599;28;20105;-74
2022/02/05 09:21:50;;;;;;;12.40;2.97;;;9.50;99.90;;;;;;5032161;28;20057;-74
2022/02/05 09:24:16;;;;;;;5.78;2.88;;;9.80;99.90;;;;;;5033849;28;20033;-70
2022/02/05 09:26:45;;;;;;;11.15;2.42;;;10.20;99.90;;;;;;5023405;28;20037;-69
2022/02/05 09:29:20;;;;;;;5.00;2.20;;;10.70;99.20;;;;;;5033807;28;20502;-72
2022/02/05 09:31:47;;;;;;;5.07;2.20;;;11.10;98.90;;;;;;5035861;28;20375;-65
2022/02/05 09:34:13;;;;;;;6.82;2.13;;;11.80;99.90;;;;;;5035572;28;20040;-64
2022/02/05 09:36:39;;;;;;;6.22;2.22;;;11.60;99.00;;;;;;5030574;28;21102;-65
2022/02/05 09:39:10;;;;;;;7.63;2.05;;;11.20;98.00;;;;;;5027593;28;20028;-63
2022/02/05 09:41:36;;;;;;;10.63;2.35;;;11.20;97.90;;;;;;5032632;28;20053;-72
2022/02/05 09:44:03;;;;;;;5.47;2.28;;;11.10;97.80;;;;;;5033094;28;20029;-71
2022/02/05 09:46:29;;;;;;;16.88;4.15;;;11.10;99.60;;;;;;5019997;28;20036;-74
2022/02/05 09:48:55;;;;;;;5.82;3.03;;;10.40;98.90;;;;;;5030176;28;20113;-74
2022/02/05 09:51:31;;;;;;;5.30;2.20;;;9.70;99.70;;;;;;5009514;28;20037;-73
2022/02/05 09:53:58;;;;;;;5.70;2.47;;;10.00;99.90;;;;;;5018413;28;20025;-72
2022/02/05 09:56:26;;;;;;;7.50;2.67;;;10.70;99.80;;;;;;5032755;28;20072;-70
2022/02/05 09:58:52;;;;;;;7.60;2.45;;;11.10;98.60;;;;;;5027659;28;20033;-73
2022/02/05 10:03:49;;;;;;;4.07;2.92;;;11.90;97.40;;;;;;5032133;28;20033;-70
2022/02/05 10:06:27;;;;;;;6.70;2.70;;;11.90;96.10;;;;;;5031505;28;20108;-73
2022/02/05 10:09:00;;;;;;;12.77;3.08;;;11.60;95.80;;;;;;5031216;28;20068;-71
2022/02/05 10:11:30;;;;;;;9.13;3.20;;;11.80;97.10;;;;;;5029434;28;20090;-70
2022/02/05 10:14:12;;;;;;;6.65;3.13;;;12.30;95.30;;;;;;5030903;28;20472;-76
2022/02/05 10:16:38;;;;;;;7.22;2.85;;;12.20;94.70;;;;;;5020524;28;20116;-70
2022/02/05 10:19:04;;;;;;;5.90;2.65;;;12.00;94.90;;;;;;5026457;28;20053;-72
2022/02/05 10:21:31;;;;;;;4.93;2.40;;;11.70;95.20;;;;;;5022642;28;20109;-73
2022/02/05 10:24:08;;;;;;;5.55;2.30;;;11.30;96.00;;;;;;5024079;28;20029;-72
2022/02/05 10:26:37;;;;;;;4.57;2.10;;;11.10;95.60;;;;;;5028083;28;20064;-72
2022/02/05 10:29:09;;;;;;;11.00;2.33;;;11.00;96.20;;;;;;5024045;28;20187;-72
2022/02/05 10:31:54;;;;;;;6.10;1.70;;;11.10;96.20;;;;;;5025499;28;20072;-71
2022/02/05 10:34:20;;;;;;;5.32;1.80;;;10.80;96.70;;;;;;5024873;28;20032;-69
2022/02/05 10:36:47;;;;;;;7.10;2.05;;;11.30;95.80;;;;;;5025188;28;20033;-72
2022/02/05 10:44:32;;;;;;;3.63;1.70;;;11.40;95.50;;;;;;5028738;28;20085;-73
2022/02/05 10:46:59;;;;;;;9.43;2.50;;;11.30;95.20;;;;;;5026271;28;20105;-74
2022/02/05 10:49:50;;;;;;;8.30;1.70;;;12.20;96.30;;;;;;5023708;28;20030;-73
2022/02/05 10:52:33;;;;;;;2.60;1.50;;;12.20;94.10;;;;;;5026538;28;20033;-69
2022/02/05 10:55:09;;;;;;;6.00;1.63;;;12.00;93.10;;;;;;5026168;28;20063;-71
2022/02/05 10:57:53;;;;;;;8.32;2.30;;;12.00;93.50;;;;;;5023728;28;20029;-71
2022/02/05 11:08:09;;;;;;;7.55;2.05;;;14.00;90.10;;;;;;5027509;28;20037;-72
2022/02/05 11:18:56;;;;;;;3.72;1.40;;;12.00;90.00;;;;;;5029486;28;20099;-73
2022/02/05 11:21:23;;;;;;;4.70;1.73;;;11.90;92.20;;;;;;5028625;28;20068;-71
2022/02/05 11:23:58;;;;;;;8.07;1.75;;;12.20;91.10;;;;;;5060924;28;20065;-71
2022/02/05 11:26:25;;;;;;;7.72;1.58;;;12.20;91.20;;;;;;5025411;28;20124;-72
2022/02/05 11:29:01;;;;;;;5.38;1.52;;;11.90;91.00;;;;;;5026284;28;20029;-72
2022/02/05 11:31:37;;;;;;;6.97;2.33;;;12.00;90.70;;;;;;5027920;28;20045;-72
2022/02/05 11:34:32;;;;;;;3.90;1.63;;;12.10;90.80;;;;;;5028942;28;20452;-72
2022/02/05 11:37:09;;;;;;;2.90;1.25;;;12.30;90.20;;;;;;5030455;28;20025;-70
2022/02/05 11:39:52;;;;;;;9.68;1.63;;;12.50;90.60;;;;;;5030411;28;20071;-71
2022/02/05 11:42:32;;;;;;;8.80;1.88;;;12.60;90.20;;;;;;5030431;28;20036;-70
2022/02/05 11:45:01;;;;;;;10.45;2.72;;;12.40;91.10;;;;;;5030490;28;20114;-72
2022/02/05 11:47:29;;;;;;;6.18;1.27;;;12.90;90.00;;;;;;5029470;28;20471;-71
2022/02/05 11:49:58;;;;;;;5.65;2.10;;;12.80;89.90;;;;;;5032135;28;20354;-72
2022/02/05 11:52:35;;;;;;;2.47;1.33;;;12.60;90.40;;;;;;5030112;28;20033;-70
2022/02/05 11:55:07;;;;;;;3.45;1.27;;;11.90;90.40;;;;;;5030425;28;20394;-71
2022/02/05 11:57:45;;;;;;;3.22;1.50;;;12.20;90.30;;;;;;5031029;28;20029;-71
2022/02/05 12:00:22;;;;;;;3.47;1.50;;;12.30;90.20;;;;;;5027862;28;20032;-72
2022/02/05 12:03:00;;;;;;;10.07;1.85;;;12.00;90.80;;;;;;5021134;28;20037;-72
2022/02/05 12:05:38;;;;;;;3.55;1.50;;;11.50;91.60;;;;;;5026389;28;20091;-71
2022/02/05 12:08:03;;;;;;;5.50;2.03;;;10.80;92.80;;;;;;5027114;28;20030;-71
2022/02/05 12:10:37;;;;;;;7.28;1.73;;;10.00;95.40;;;;;;5030244;28;20030;-69
2022/02/05 12:13:24;;;;;;;6.40;1.67;;;9.90;95.80;;;;;;5032502;28;20040;-70
2022/02/05 12:15:59;;;;;;;7.97;2.17;;;9.90;96.00;;;;;;5031379;28;20028;-69
2022/02/05 12:18:28;;;;;;;3.53;1.45;;;9.90;96.00;;;;;;5029711;28;20037;-71
2022/02/05 12:20:56;;;;;;;4.90;1.35;;;9.50;97.00;;;;;;5029550;28;20034;-70
2022/02/05 12:26:20;;;;;;;7.30;2.10;;;9.40;98.00;;;;;;5029931;28;20042;-72
2022/02/05 12:28:57;;;;;;;6.65;1.55;;;9.60;98.20;;;;;;5031016;28;20068;-71
2022/02/05 12:31:26;;;;;;;6.72;2.00;;;9.40;98.30;;;;;;5031005;28;20063;-71
2022/02/05 12:34:00;;;;;;;8.35;1.70;;;9.20;98.70;;;;;;5029952;28;20056;-71
2022/02/05 12:36:41;;;;;;;6.18;2.08;;;9.00;99.00;;;;;;5029553;28;20103;-71
2022/02/05 12:39:15;;;;;;;8.85;1.58;;;8.70;99.70;;;;;;5032613;28;20040;-72
2022/02/05 12:41:45;;;;;;;6.70;1.40;;;8.70;99.90;;;;;;5036495;28;20052;-80
2022/02/05 12:44:11;;;;;;;5.05;1.30;;;10.50;99.90;;;;;;5034702;28;20061;-82
2022/02/05 12:47:11;;;;;;;7.00;1.80;;;11.30;99.90;;;;;;5030647;28;20127;-77
2022/02/05 12:52:06;;;;;;;3.28;1.25;;;11.60;99.10;;;;;;5012766;28;20109;-80
2022/02/05 12:54:35;;;;;;;3.53;1.35;;;11.50;99.90;;;;;;5011493;28;20511;-81
2022/02/05 12:57:02;;;;;;;5.70;1.25;;;12.00;99.90;;;;;;5013242;28;20049;-81
2022/02/05 12:59:36;;;;;;;3.95;1.20;;;12.40;99.70;;;;;;5012419;28;20054;-66
2022/02/05 13:02:03;;;;;;;7.32;1.40;;;12.00;96.10;;;;;;5007141;28;20070;-74
2022/02/05 13:04:37;;;;;;;5.43;1.40;;;12.20;96.20;;;;;;5007968;28;20051;-72
2022/02/05 13:07:08;;;;;;;7.65;2.15;;;11.50;95.40;;;;;;5007885;28;20470;-71
2022/02/05 13:09:38;;;;;;;5.15;1.35;;;11.10;96.40;;;;;;5007944;28;21732;-71
2022/02/05 13:12:07;;;;;;;4.60;1.30;;;10.60;97.00;;;;;;5010336;28;20037;-72
2022/02/05 13:14:36;;;;;;;6.18;1.27;;;9.90;97.70;;;;;;5010218;28;20399;-70
2022/02/05 13:17:03;;;;;;;2.20;1.20;;;9.60;98.40;;;;;;5005504;28;20034;-68
2022/02/05 13:19:39;;;;;;;6.35;1.60;;;10.40;99.90;;;;;;5004031;28;20038;-68
2022/02/05 13:25:36;;;;;;;5.68;1.38;;;11.60;96.40;;;;;;4990741;28;20041;-65
2022/02/05 13:35:56;;;;;;;;;;;13.90;96.80;;;;;;5027802;28;20040;-69
2022/02/05 13:38:22;;;;;;;2.53;0.80;;;14.50;92.00;;;;;;5029437;28;19909;-68
2022/02/05 13:40:59;;;;;;;6.80;1.40;;;15.00;91.10;;;;;;5027659;28;20036;-67
2022/02/05 13:43:40;;;;;;;5.78;0.98;;;15.10;92.40;;;;;;5025352;28;20108;-70
2022/02/05 13:46:13;;;;;;;5.65;1.00;;;15.00;86.40;;;;;;5042099;28;20099;-72
2022/02/05 13:48:40;;;;;;;5.20;1.15;;;14.70;83.80;;;;;;5023509;28;20046;-71
2022/02/05 13:51:06;;;;;;;5.93;1.00;;;13.80;83.60;;;;;;5028328;28;20102;-70
2022/02/05 13:53:56;;;;;;;5.38;1.65;;;13.20;84.20;;;;;;5027015;28;20034;-73
2022/02/05 13:56:23;;;;;;;4.95;1.75;;;12.90;86.80;;;;;;5021818;28;20349;-72
2022/02/05 13:58:49;;;;;;;3.22;0.82;;;13.70;90.70;;;;;;5027147;28;20030;-71
2022/02/05 14:01:28;;;;;;;6.07;1.20;;;13.50;87.80;;;;;;5059870;28;20041;-72
2022/02/05 14:03:54;;;;;;;2.47;1.05;;;14.10;88.30;;;;;;5027677;28;20155;-72
2022/02/05 14:06:20;;;;;;;3.35;1.02;;;13.90;83.50;;;;;;5025495;28;20113;-76
2022/02/05 14:08:48;;;;;;;3.28;1.13;;;14.20;85.30;;;;;;5026572;28;20044;-72
2022/02/05 14:11:16;;;;;;;2.15;0.70;;;13.90;84.00;;;;;;5028971;28;20136;-73
2022/02/05 14:13:43;;;;;;;3.15;1.10;;;13.90;84.80;;;;;;5025192;28;20025;-71
2022/02/05 14:16:10;;;;;;;4.35;1.02;;;13.50;80.60;;;;;;5027857;28;20046;-70
2022/02/05 14:18:55;;;;;;;2.55;0.93;;;13.40;79.80;;;;;;5025385;28;20493;-70
2022/02/05 14:21:39;;;;;;;4.43;0.90;;;12.50;82.20;;;;;;5021537;28;20033;-70
2022/02/05 14:24:17;;;;;;;9.98;1.83;;;12.30;83.40;;;;;;5026890;28;20079;-70
2022/02/05 14:26:52;;;;;;;2.25;1.02;;;12.50;83.70;;;;;;5011812;28;20225;-74
2022/02/05 14:29:17;;;;;;;2.28;1.05;;;12.40;83.90;;;;;;5025303;28;20041;-70
2022/02/05 14:31:47;;;;;;;4.00;1.23;;;12.60;83.50;;;;;;5024310;28;20201;-71
2022/02/05 14:34:19;;;;;;;3.50;1.50;;;12.90;83.10;;;;;;5028666;28;20036;-72
2022/02/05 14:42:11;;;;;;;3.78;1.50;;;12.40;84.80;;;;;;5026763;28;20490;-73
2022/02/05 14:44:36;;;;;;;3.42;1.27;;;12.30;84.60;;;;;;5032683;28;20124;-72
2022/02/05 14:47:04;;;;;;;5.53;1.23;;;12.30;85.60;;;;;;5029674;28;20136;-74
2022/02/05 14:49:30;;;;;;;3.78;1.30;;;12.30;85.10;;;;;;5027986;28;20124;-71
2022/02/05 14:51:57;;;;;;;3.65;1.75;;;12.10;87.10;;;;;;5029423;28;20040;-71
2022/02/05 14:54:23;;;;;;;3.92;1.30;;;11.40;88.40;;;;;;5026775;28;20021;-72
2022/02/05 14:56:49;;;;;;;3.97;1.58;;;11.30;89.40;;;;;;5021982;28;20049;-71
2022/02/05 14:59:15;;;;;;;7.63;2.10;;;10.60;90.80;;;;;;5057705;28;20037;-70
2022/02/05 15:01:41;;;;;;;9.38;2.22;;;10.40;91.70;;;;;;5025466;28;20471;-71
2022/02/05 15:04:07;;;;;;;6.95;1.30;;;10.30;92.10;;;;;;5026410;28;20033;-70
2022/02/05 15:06:35;;;;;;;5.55;1.52;;;10.10;92.50;;;;;;5017382;28;20025;-72
2022/02/05 15:09:05;;;;;;;7.25;1.73;;;9.90;93.40;;;;;;5019798;28;20119;-71
2022/02/05 15:11:31;;;;;;;5.00;1.35;;;9.60;94.70;;;;;;5025837;28;20111;-71
2022/02/05 15:14:00;;;;;;;3.55;1.42;;;9.50;95.40;;;;;;5027527;28;20025;-72
2022/02/05 15:16:29;;;;;;;4.30;1.67;;;9.40;95.90;;;;;;5028258;28;20044;-71
2022/02/05 15:18:58;;;;;;;5.20;1.88;;;9.10;97.60;;;;;;5028458;28;20041;-71
2022/02/05 15:21:29;;;;;;;8.02;1.65;;;8.70;99.20;;;;;;5021632;28;20083;-71
2022/02/05 15:23:56;;;;;;;4.57;1.63;;;9.70;99.90;;;;;;5026957;28;20557;-71
2022/02/05 15:26:25;;;;;;;5.00;1.90;;;9.60;99.60;;;;;;5023263;28;20141;-72
2022/02/05 15:28:51;;;;;;;9.30;1.98;;;9.10;99.90;;;;;;5036454;28;20558;-71
2022/02/05 15:31:17;;;;;;;5.78;2.35;;;8.70;99.90;;;;;;5016363;28;20029;-70
2022/02/05 15:33:46;;;;;;;6.00;2.15;;;8.50;99.90;;;;;;5028007;28;20224;-71
2022/02/05 15:36:22;;;;;;;4.82;1.75;;;8.30;99.90;;;;;;5021554;28;20035;-72
2022/02/05 15:43:54;;;;;;;7.15;1.92;;;8.10;99.90;;;;;;5022809;28;20042;-71
2022/02/05 15:46:20;;;;;;;5.60;1.70;;;8.10;99.90;;;;;;5020941;28;20053;-69
2022/02/05 15:48:47;;;;;;;5.07;1.90;;;7.90;99.90;;;;;;5028326;28;20045;-71
2022/02/05 15:51:13;;;;;;;3.63;1.52;;;7.80;99.90;;;;;;5026725;28;20124;-72
2022/02/05 15:53:45;;;;;;;3.17;2.55;;;7.90;99.90;;;;;;5025437;28;20117;-72